sensor_id;sensor_type;location;lat;lon;timestamp;P1;durP1;ratioP1;P2;durP2;ratioP2
24635;SDS011;12772;49.794;10.024;2023-12-29T00:01:08;2.92;;;2.72;;
24635;SDS011;12772;49.794;10.024;2023-12-29T00:05:10;2.83;;;2.63;;
24635;SDS011;12772;49.794;10.024;2023-12-29T00:09:12;3.47;;;3.17;;
24635;SDS011;12772;49.794;10.024;2023-12-29T00:13:16;2.40;;;2.22;;
24635;SDS011;12772;49.794;10.024;2023-12-29T00:17:23;3.10;;;2.80;;
24635;SDS011;12772;49.794;10.024;2023-12-29T00:21:25;2.90;;;2.60;;
24635;SDS011;12772;49.794;10.024;2023-12-29T00:25:27;3.10;;;2.25;;
24635;SDS011;12772;49.794;10.024;2023-12-29T00:29:29;2.97;;;2.67;;
24635;SDS011;12772;49.794;10.024;2023-12-29T00:33:33;2.38;;;2.20;;
24635;SDS011;12772;49.794;10.024;2023-12-29T00:37:35;2.47;;;2.28;;
24635;SDS011;12772;49.794;10.024;2023-12-29T00:41:37;2.55;;;2.35;;
24635;SDS011;12772;49.794;10.024;2023-12-29T00:45:41;2.60;;;2.40;;
24635;SDS011;12772;49.794;10.024;2023-12-29T00:49:43;3.55;;;2.72;;
24635;SDS011;12772;49.794;10.024;2023-12-29T00:53:45;2.83;;;2.63;;
24635;SDS011;12772;49.794;10.024;2023-12-29T00:57:47;2.70;;;2.50;;
24635;SDS011;12772;49.794;10.024;2023-12-29T01:01:49;2.78;;;2.58;;
24635;SDS011;12772;49.794;10.024;2023-12-29T01:05:51;2.70;;;2.50;;
24635;SDS011;12772;49.794;10.024;2023-12-29T01:09:54;2.72;;;2.45;;
24635;SDS011;12772;49.794;10.024;2023-12-29T01:13:56;2.88;;;2.67;;
24635;SDS011;12772;49.794;10.024;2023-12-29T01:17:58;2.90;;;2.70;;
24635;SDS011;12772;49.794;10.024;2023-12-29T01:22:00;3.80;;;2.90;;
24635;SDS011;12772;49.794;10.024;2023-12-29T01:26:05;2.85;;;2.50;;
24635;SDS011;12772;49.794;10.024;2023-12-29T01:30:09;2.20;;;2.10;;
24635;SDS011;12772;49.794;10.024;2023-12-29T01:34:11;2.33;;;2.20;;
24635;SDS011;12772;49.794;10.024;2023-12-29T01:38:13;2.50;;;2.30;;
24635;SDS011;12772;49.794;10.024;2023-12-29T01:42:15;2.30;;;2.15;;
24635;SDS011;12772;49.794;10.024;2023-12-29T01:46:17;2.70;;;2.50;;
24635;SDS011;12772;49.794;10.024;2023-12-29T01:50:19;2.92;;;2.63;;
24635;SDS011;12772;49.794;10.024;2023-12-29T01:54:23;2.30;;;2.20;;
24635;SDS011;12772;49.794;10.024;2023-12-29T01:58:28;2.60;;;2.40;;
24635;SDS011;12772;49.794;10.024;2023-12-29T02:02:31;2.60;;;2.40;;
24635;SDS011;12772;49.794;10.024;2023-12-29T02:06:34;3.22;;;2.33;;
24635;SDS011;12772;49.794;10.024;2023-12-29T02:10:37;4.22;;;2.63;;
24635;SDS011;12772;49.794;10.024;2023-12-29T02:14:39;3.40;;;2.60;;
24635;SDS011;12772;49.794;10.024;2023-12-29T02:18:41;2.72;;;2.53;;
24635;SDS011;12772;49.794;10.024;2023-12-29T02:22:47;3.10;;;2.90;;
24635;SDS011;12772;49.794;10.024;2023-12-29T02:26:50;2.58;;;2.30;;
24635;SDS011;12772;49.794;10.024;2023-12-29T02:31:01;3.03;;;2.72;;
24635;SDS011;12772;49.794;10.024;2023-12-29T02:35:14;2.83;;;2.63;;
24635;SDS011;12772;49.794;10.024;2023-12-29T02:39:19;3.38;;;3.08;;
24635;SDS011;12772;49.794;10.024;2023-12-29T02:43:21;2.88;;;2.67;;
24635;SDS011;12772;49.794;10.024;2023-12-29T02:47:23;3.50;;;3.20;;
24635;SDS011;12772;49.794;10.024;2023-12-29T02:51:26;3.55;;;3.25;;
24635;SDS011;12772;49.794;10.024;2023-12-29T02:55:28;3.13;;;2.83;;
24635;SDS011;12772;49.794;10.024;2023-12-29T02:59:29;2.90;;;2.67;;
24635;SDS011;12772;49.794;10.024;2023-12-29T03:03:31;3.60;;;3.30;;
24635;SDS011;12772;49.794;10.024;2023-12-29T03:07:34;3.35;;;3.05;;
24635;SDS011;12772;49.794;10.024;2023-12-29T03:11:36;3.75;;;3.35;;
24635;SDS011;12772;49.794;10.024;2023-12-29T03:15:38;2.67;;;2.50;;
24635;SDS011;12772;49.794;10.024;2023-12-29T03:19:40;2.72;;;2.53;;
24635;SDS011;12772;49.794;10.024;2023-12-29T03:23:42;3.47;;;2.70;;
24635;SDS011;12772;49.794;10.024;2023-12-29T03:27:44;5.60;;;3.10;;
24635;SDS011;12772;49.794;10.024;2023-12-29T03:31:46;3.10;;;2.90;;
24635;SDS011;12772;49.794;10.024;2023-12-29T03:35:48;2.80;;;2.60;;
24635;SDS011;12772;49.794;10.024;2023-12-29T03:39:50;3.13;;;2.83;;
24635;SDS011;12772;49.794;10.024;2023-12-29T03:43:52;2.97;;;2.78;;
24635;SDS011;12772;49.794;10.024;2023-12-29T03:47:54;2.92;;;2.58;;
24635;SDS011;12772;49.794;10.024;2023-12-29T03:51:56;3.38;;;2.50;;
24635;SDS011;12772;49.794;10.024;2023-12-29T03:55:58;2.90;;;2.53;;
24635;SDS011;12772;49.794;10.024;2023-12-29T04:00:00;2.60;;;2.40;;
24635;SDS011;12772;49.794;10.024;2023-12-29T04:04:02;2.90;;;2.70;;
24635;SDS011;12772;49.794;10.024;2023-12-29T04:08:04;2.97;;;2.70;;
24635;SDS011;12772;49.794;10.024;2023-12-29T04:12:07;2.33;;;2.20;;
24635;SDS011;12772;49.794;10.024;2023-12-29T04:16:09;2.38;;;2.20;;
24635;SDS011;12772;49.794;10.024;2023-12-29T04:20:11;2.70;;;2.50;;
24635;SDS011;12772;49.794;10.024;2023-12-29T04:24:13;2.83;;;2.03;;
24635;SDS011;12772;49.794;10.024;2023-12-29T04:28:15;2.90;;;2.40;;
24635;SDS011;12772;49.794;10.024;2023-12-29T04:32:17;3.22;;;2.92;;
24635;SDS011;12772;49.794;10.024;2023-12-29T04:36:19;2.47;;;2.38;;
24635;SDS011;12772;49.794;10.024;2023-12-29T04:40:21;2.63;;;2.42;;
24635;SDS011;12772;49.794;10.024;2023-12-29T04:44:23;2.70;;;2.50;;
24635;SDS011;12772;49.794;10.024;2023-12-29T04:48:25;3.45;;;2.30;;
24635;SDS011;12772;49.794;10.024;2023-12-29T04:52:27;2.72;;;2.53;;
24635;SDS011;12772;49.794;10.024;2023-12-29T04:56:29;2.28;;;2.10;;
24635;SDS011;12772;49.794;10.024;2023-12-29T05:00:31;2.58;;;2.30;;
24635;SDS011;12772;49.794;10.024;2023-12-29T05:04:33;3.35;;;2.75;;
24635;SDS011;12772;49.794;10.024;2023-12-29T05:08:35;2.42;;;2.22;;
24635;SDS011;12772;49.794;10.024;2023-12-29T05:12:37;4.32;;;2.60;;
24635;SDS011;12772;49.794;10.024;2023-12-29T05:16:42;4.88;;;2.40;;
24635;SDS011;12772;49.794;10.024;2023-12-29T05:20:45;3.00;;;2.63;;
24635;SDS011;12772;49.794;10.024;2023-12-29T05:24:47;2.80;;;2.60;;
24635;SDS011;12772;49.794;10.024;2023-12-29T05:28:48;2.50;;;2.30;;
24635;SDS011;12772;49.794;10.024;2023-12-29T05:32:50;4.72;;;2.95;;
24635;SDS011;12772;49.794;10.024;2023-12-29T05:36:52;4.68;;;2.72;;
24635;SDS011;12772;49.794;10.024;2023-12-29T05:40:55;3.15;;;2.80;;
24635;SDS011;12772;49.794;10.024;2023-12-29T05:44:57;3.30;;;3.00;;
24635;SDS011;12772;49.794;10.024;2023-12-29T05:48:59;3.60;;;2.92;;
24635;SDS011;12772;49.794;10.024;2023-12-29T05:53:01;3.53;;;3.22;;
24635;SDS011;12772;49.794;10.024;2023-12-29T05:57:03;3.38;;;3.08;;
24635;SDS011;12772;49.794;10.024;2023-12-29T06:01:05;5.70;;;3.90;;
24635;SDS011;12772;49.794;10.024;2023-12-29T06:05:07;3.83;;;3.30;;
24635;SDS011;12772;49.794;10.024;2023-12-29T06:09:12;3.83;;;3.33;;
24635;SDS011;12772;49.794;10.024;2023-12-29T06:13:14;4.15;;;3.03;;
24635;SDS011;12772;49.794;10.024;2023-12-29T06:17:16;4.75;;;3.85;;
24635;SDS011;12772;49.794;10.024;2023-12-29T06:21:18;4.05;;;3.20;;
24635;SDS011;12772;49.794;10.024;2023-12-29T06:25:20;5.75;;;3.53;;
24635;SDS011;12772;49.794;10.024;2023-12-29T06:29:23;3.83;;;2.97;;
24635;SDS011;12772;49.794;10.024;2023-12-29T06:33:25;3.53;;;2.50;;
24635;SDS011;12772;49.794;10.024;2023-12-29T06:37:27;3.13;;;2.92;;
24635;SDS011;12772;49.794;10.024;2023-12-29T06:41:29;5.35;;;3.03;;
24635;SDS011;12772;49.794;10.024;2023-12-29T06:45:31;3.65;;;3.28;;
24635;SDS011;12772;49.794;10.024;2023-12-29T06:49:34;2.53;;;2.33;;
24635;SDS011;12772;49.794;10.024;2023-12-29T06:53:36;2.92;;;2.72;;
24635;SDS011;12772;49.794;10.024;2023-12-29T06:57:39;3.15;;;2.95;;
24635;SDS011;12772;49.794;10.024;2023-12-29T07:01:41;2.42;;;2.22;;
24635;SDS011;12772;49.794;10.024;2023-12-29T07:10:41;2.90;;;2.70;;
24635;SDS011;12772;49.794;10.024;2023-12-29T07:14:44;2.83;;;2.63;;
24635;SDS011;12772;49.794;10.024;2023-12-29T07:18:46;3.97;;;3.10;;
24635;SDS011;12772;49.794;10.024;2023-12-29T07:22:48;5.50;;;2.45;;
24635;SDS011;12772;49.794;10.024;2023-12-29T07:26:50;3.38;;;2.75;;
24635;SDS011;12772;49.794;10.024;2023-12-29T07:30:53;3.10;;;2.75;;
24635;SDS011;12772;49.794;10.024;2023-12-29T07:34:55;3.13;;;2.60;;
24635;SDS011;12772;49.794;10.024;2023-12-29T07:38:58;3.75;;;3.20;;
24635;SDS011;12772;49.794;10.024;2023-12-29T07:43:00;3.05;;;2.53;;
24635;SDS011;12772;49.794;10.024;2023-12-29T07:47:02;2.83;;;2.38;;
24635;SDS011;12772;49.794;10.024;2023-12-29T07:51:05;3.92;;;2.60;;
24635;SDS011;12772;49.794;10.024;2023-12-29T07:55:07;3.00;;;2.45;;
24635;SDS011;12772;49.794;10.024;2023-12-29T07:59:09;3.22;;;2.30;;
24635;SDS011;12772;49.794;10.024;2023-12-29T08:03:11;3.30;;;2.50;;
24635;SDS011;12772;49.794;10.024;2023-12-29T08:07:14;2.83;;;2.63;;
24635;SDS011;12772;49.794;10.024;2023-12-29T08:11:16;3.95;;;2.60;;
24635;SDS011;12772;49.794;10.024;2023-12-29T08:15:18;2.58;;;2.38;;
24635;SDS011;12772;49.794;10.024;2023-12-29T08:19:21;2.30;;;2.10;;
24635;SDS011;12772;49.794;10.024;2023-12-29T08:23:23;2.00;;;1.90;;
24635;SDS011;12772;49.794;10.024;2023-12-29T08:27:27;2.80;;;2.20;;
24635;SDS011;12772;49.794;10.024;2023-12-29T08:31:28;2.40;;;2.10;;
24635;SDS011;12772;49.794;10.024;2023-12-29T08:35:30;2.08;;;1.88;;
24635;SDS011;12772;49.794;10.024;2023-12-29T08:39:33;2.53;;;1.83;;
24635;SDS011;12772;49.794;10.024;2023-12-29T08:43:35;2.65;;;2.20;;
24635;SDS011;12772;49.794;10.024;2023-12-29T08:47:37;2.97;;;2.10;;
24635;SDS011;12772;49.794;10.024;2023-12-29T08:51:39;3.08;;;2.17;;
24635;SDS011;12772;49.794;10.024;2023-12-29T08:55:41;2.20;;;2.00;;
24635;SDS011;12772;49.794;10.024;2023-12-29T08:59:43;2.10;;;1.98;;
24635;SDS011;12772;49.794;10.024;2023-12-29T09:03:45;1.73;;;1.63;;
24635;SDS011;12772;49.794;10.024;2023-12-29T09:07:47;2.03;;;1.92;;
24635;SDS011;12772;49.794;10.024;2023-12-29T09:11:49;2.45;;;1.88;;
24635;SDS011;12772;49.794;10.024;2023-12-29T09:15:51;2.17;;;1.98;;
24635;SDS011;12772;49.794;10.024;2023-12-29T09:19:53;2.72;;;1.70;;
24635;SDS011;12772;49.794;10.024;2023-12-29T09:23:55;1.92;;;1.83;;
24635;SDS011;12772;49.794;10.024;2023-12-29T09:27:58;2.25;;;1.67;;
24635;SDS011;12772;49.794;10.024;2023-12-29T09:32:00;1.88;;;1.77;;
24635;SDS011;12772;49.794;10.024;2023-12-29T09:36:03;1.70;;;1.60;;
24635;SDS011;12772;49.794;10.024;2023-12-29T09:40:06;1.70;;;1.60;;
24635;SDS011;12772;49.794;10.024;2023-12-29T09:44:09;2.13;;;1.95;;
24635;SDS011;12772;49.794;10.024;2023-12-29T09:48:16;1.83;;;1.58;;
24635;SDS011;12772;49.794;10.024;2023-12-29T09:52:20;3.72;;;1.83;;
24635;SDS011;12772;49.794;10.024;2023-12-29T09:56:23;2.53;;;1.50;;
24635;SDS011;12772;49.794;10.024;2023-12-29T10:00:25;1.50;;;1.40;;
24635;SDS011;12772;49.794;10.024;2023-12-29T10:04:28;1.70;;;1.60;;
24635;SDS011;12772;49.794;10.024;2023-12-29T10:08:30;2.05;;;1.85;;
24635;SDS011;12772;49.794;10.024;2023-12-29T10:12:35;1.80;;;1.63;;
24635;SDS011;12772;49.794;10.024;2023-12-29T10:16:45;1.90;;;1.80;;
24635;SDS011;12772;49.794;10.024;2023-12-29T10:21:06;2.13;;;2.00;;
24635;SDS011;12772;49.794;10.024;2023-12-29T10:25:13;2.10;;;1.90;;
24635;SDS011;12772;49.794;10.024;2023-12-29T10:29:16;2.10;;;1.95;;
24635;SDS011;12772;49.794;10.024;2023-12-29T10:33:21;2.20;;;2.00;;
24635;SDS011;12772;49.794;10.024;2023-12-29T10:37:25;1.73;;;1.63;;
24635;SDS011;12772;49.794;10.024;2023-12-29T10:41:26;1.50;;;1.40;;
24635;SDS011;12772;49.794;10.024;2023-12-29T10:45:28;1.40;;;1.40;;
24635;SDS011;12772;49.794;10.024;2023-12-29T10:49:30;1.83;;;1.70;;
24635;SDS011;12772;49.794;10.024;2023-12-29T10:53:33;1.70;;;1.60;;
24635;SDS011;12772;49.794;10.024;2023-12-29T10:57:36;2.00;;;1.65;;
24635;SDS011;12772;49.794;10.024;2023-12-29T11:01:39;3.05;;;1.90;;
24635;SDS011;12772;49.794;10.024;2023-12-29T11:05:41;1.70;;;1.60;;
24635;SDS011;12772;49.794;10.024;2023-12-29T11:09:43;1.60;;;1.42;;
24635;SDS011;12772;49.794;10.024;2023-12-29T11:13:46;2.42;;;1.67;;
24635;SDS011;12772;49.794;10.024;2023-12-29T11:17:48;2.47;;;1.27;;
24635;SDS011;12772;49.794;10.024;2023-12-29T11:21:54;5.10;;;3.47;;
24635;SDS011;12772;49.794;10.024;2023-12-29T11:25:57;2.53;;;1.90;;
24635;SDS011;12772;49.794;10.024;2023-12-29T11:30:01;1.33;;;1.23;;
24635;SDS011;12772;49.794;10.024;2023-12-29T11:34:12;1.35;;;1.25;;
24635;SDS011;12772;49.794;10.024;2023-12-29T11:38:31;1.33;;;1.10;;
24635;SDS011;12772;49.794;10.024;2023-12-29T11:42:41;1.70;;;1.60;;
24635;SDS011;12772;49.794;10.024;2023-12-29T11:46:45;2.42;;;2.22;;
24635;SDS011;12772;49.794;10.024;2023-12-29T11:50:47;2.33;;;1.48;;
24635;SDS011;12772;49.794;10.024;2023-12-29T11:54:49;10.13;;;4.90;;
24635;SDS011;12772;49.794;10.024;2023-12-29T11:58:51;4.10;;;3.70;;
24635;SDS011;12772;49.794;10.024;2023-12-29T12:02:53;2.28;;;1.92;;
24635;SDS011;12772;49.794;10.024;2023-12-29T12:06:55;3.10;;;2.00;;
24635;SDS011;12772;49.794;10.024;2023-12-29T12:10:58;1.70;;;1.60;;
24635;SDS011;12772;49.794;10.024;2023-12-29T12:15:32;1.60;;;1.50;;
24635;SDS011;12772;49.794;10.024;2023-12-29T12:19:34;4.45;;;1.40;;
24635;SDS011;12772;49.794;10.024;2023-12-29T12:23:36;1.50;;;1.40;;
24635;SDS011;12772;49.794;10.024;2023-12-29T12:27:41;1.77;;;1.67;;
24635;SDS011;12772;49.794;10.024;2023-12-29T12:31:56;1.40;;;1.30;;
24635;SDS011;12772;49.794;10.024;2023-12-29T12:35:59;1.23;;;1.20;;
24635;SDS011;12772;49.794;10.024;2023-12-29T12:40:02;1.35;;;1.23;;
24635;SDS011;12772;49.794;10.024;2023-12-29T12:48:20;1.30;;;1.20;;
24635;SDS011;12772;49.794;10.024;2023-12-29T12:52:33;1.67;;;1.40;;
24635;SDS011;12772;49.794;10.024;2023-12-29T12:56:37;1.25;;;1.20;;
24635;SDS011;12772;49.794;10.024;2023-12-29T13:00:39;1.85;;;1.70;;
24635;SDS011;12772;49.794;10.024;2023-12-29T13:04:41;1.38;;;1.27;;
24635;SDS011;12772;49.794;10.024;2023-12-29T13:08:45;2.38;;;1.33;;
24635;SDS011;12772;49.794;10.024;2023-12-29T13:12:54;1.38;;;1.27;;
24635;SDS011;12772;49.794;10.024;2023-12-29T13:16:56;1.20;;;1.10;;
24635;SDS011;12772;49.794;10.024;2023-12-29T13:20:58;1.20;;;1.08;;
24635;SDS011;12772;49.794;10.024;2023-12-29T13:25:01;1.10;;;1.10;;
24635;SDS011;12772;49.794;10.024;2023-12-29T13:29:07;1.50;;;1.40;;
24635;SDS011;12772;49.794;10.024;2023-12-29T13:33:12;1.90;;;1.80;;
24635;SDS011;12772;49.794;10.024;2023-12-29T13:37:30;1.60;;;1.50;;
24635;SDS011;12772;49.794;10.024;2023-12-29T13:41:36;1.30;;;1.30;;
24635;SDS011;12772;49.794;10.024;2023-12-29T13:45:39;1.75;;;1.65;;
24635;SDS011;12772;49.794;10.024;2023-12-29T13:49:42;2.00;;;1.90;;
24635;SDS011;12772;49.794;10.024;2023-12-29T13:53:45;1.55;;;1.45;;
24635;SDS011;12772;49.794;10.024;2023-12-29T13:57:47;1.90;;;1.40;;
24635;SDS011;12772;49.794;10.024;2023-12-29T14:01:49;1.70;;;1.60;;
24635;SDS011;12772;49.794;10.024;2023-12-29T14:05:51;3.08;;;2.72;;
24635;SDS011;12772;49.794;10.024;2023-12-29T14:09:56;7.15;;;4.95;;
24635;SDS011;12772;49.794;10.024;2023-12-29T14:13:58;16.08;;;9.27;;
24635;SDS011;12772;49.794;10.024;2023-12-29T14:18:00;2.13;;;1.92;;
24635;SDS011;12772;49.794;10.024;2023-12-29T14:22:04;2.08;;;1.98;;
24635;SDS011;12772;49.794;10.024;2023-12-29T14:26:06;3.17;;;2.90;;
24635;SDS011;12772;49.794;10.024;2023-12-29T14:30:18;1.60;;;1.50;;
24635;SDS011;12772;49.794;10.024;2023-12-29T14:34:21;1.75;;;1.65;;
24635;SDS011;12772;49.794;10.024;2023-12-29T14:38:23;1.90;;;1.65;;
24635;SDS011;12772;49.794;10.024;2023-12-29T14:42:25;1.10;;;1.10;;
24635;SDS011;12772;49.794;10.024;2023-12-29T14:46:27;1.80;;;1.70;;
24635;SDS011;12772;49.794;10.024;2023-12-29T14:50:30;1.70;;;1.60;;
24635;SDS011;12772;49.794;10.024;2023-12-29T14:54:32;1.40;;;1.25;;
24635;SDS011;12772;49.794;10.024;2023-12-29T14:58:34;1.58;;;1.48;;
24635;SDS011;12772;49.794;10.024;2023-12-29T15:02:36;1.98;;;1.88;;
24635;SDS011;12772;49.794;10.024;2023-12-29T15:06:38;1.70;;;1.60;;
24635;SDS011;12772;49.794;10.024;2023-12-29T15:10:40;2.15;;;1.67;;
24635;SDS011;12772;49.794;10.024;2023-12-29T15:14:44;1.98;;;1.50;;
24635;SDS011;12772;49.794;10.024;2023-12-29T15:18:46;2.03;;;1.40;;
24635;SDS011;12772;49.794;10.024;2023-12-29T15:22:48;2.03;;;1.20;;
24635;SDS011;12772;49.794;10.024;2023-12-29T15:26:50;1.58;;;1.48;;
24635;SDS011;12772;49.794;10.024;2023-12-29T15:30:52;2.72;;;1.33;;
24635;SDS011;12772;49.794;10.024;2023-12-29T15:34:54;1.58;;;1.48;;
24635;SDS011;12772;49.794;10.024;2023-12-29T15:38:56;1.70;;;1.60;;
24635;SDS011;12772;49.794;10.024;2023-12-29T15:43:00;1.65;;;1.55;;
24635;SDS011;12772;49.794;10.024;2023-12-29T15:47:03;1.77;;;1.67;;
24635;SDS011;12772;49.794;10.024;2023-12-29T15:51:08;1.88;;;1.75;;
24635;SDS011;12772;49.794;10.024;2023-12-29T15:55:10;2.10;;;1.80;;
24635;SDS011;12772;49.794;10.024;2023-12-29T15:59:12;2.10;;;1.90;;
24635;SDS011;12772;49.794;10.024;2023-12-29T16:03:14;2.00;;;1.80;;
24635;SDS011;12772;49.794;10.024;2023-12-29T16:07:16;2.35;;;2.15;;
24635;SDS011;12772;49.794;10.024;2023-12-29T16:11:19;2.13;;;2.00;;
24635;SDS011;12772;49.794;10.024;2023-12-29T16:15:24;1.58;;;1.48;;
24635;SDS011;12772;49.794;10.024;2023-12-29T16:19:26;1.70;;;1.60;;
24635;SDS011;12772;49.794;10.024;2023-12-29T16:23:28;1.92;;;1.83;;
24635;SDS011;12772;49.794;10.024;2023-12-29T16:27:30;2.38;;;1.88;;
24635;SDS011;12772;49.794;10.024;2023-12-29T16:31:32;1.88;;;1.77;;
24635;SDS011;12772;49.794;10.024;2023-12-29T16:35:34;1.92;;;1.77;;
24635;SDS011;12772;49.794;10.024;2023-12-29T16:39:36;1.90;;;1.80;;
24635;SDS011;12772;49.794;10.024;2023-12-29T16:43:41;4.07;;;3.72;;
24635;SDS011;12772;49.794;10.024;2023-12-29T16:47:43;3.55;;;3.25;;
24635;SDS011;12772;49.794;10.024;2023-12-29T16:51:45;2.55;;;2.35;;
24635;SDS011;12772;49.794;10.024;2023-12-29T16:55:48;2.10;;;2.00;;
24635;SDS011;12772;49.794;10.024;2023-12-29T16:59:51;1.80;;;1.70;;
24635;SDS011;12772;49.794;10.024;2023-12-29T17:03:53;1.90;;;1.80;;
24635;SDS011;12772;49.794;10.024;2023-12-29T17:07:55;2.30;;;2.00;;
24635;SDS011;12772;49.794;10.024;2023-12-29T17:11:56;1.67;;;1.58;;
24635;SDS011;12772;49.794;10.024;2023-12-29T17:15:58;3.33;;;1.73;;
24635;SDS011;12772;49.794;10.024;2023-12-29T17:20:02;4.25;;;3.42;;
24635;SDS011;12772;49.794;10.024;2023-12-29T17:24:04;1.52;;;1.42;;
24635;SDS011;12772;49.794;10.024;2023-12-29T17:28:06;1.92;;;1.83;;
24635;SDS011;12772;49.794;10.024;2023-12-29T17:32:08;2.58;;;1.70;;
24635;SDS011;12772;49.794;10.024;2023-12-29T17:36:10;1.60;;;1.50;;
24635;SDS011;12772;49.794;10.024;2023-12-29T17:40:13;1.77;;;1.67;;
24635;SDS011;12772;49.794;10.024;2023-12-29T17:44:15;1.70;;;1.60;;
24635;SDS011;12772;49.794;10.024;2023-12-29T17:48:17;2.70;;;1.90;;
24635;SDS011;12772;49.794;10.024;2023-12-29T17:52:19;1.58;;;1.48;;
24635;SDS011;12772;49.794;10.024;2023-12-29T17:56:21;1.85;;;1.75;;
24635;SDS011;12772;49.794;10.024;2023-12-29T18:00:23;2.25;;;1.58;;
24635;SDS011;12772;49.794;10.024;2023-12-29T18:04:28;2.08;;;1.92;;
24635;SDS011;12772;49.794;10.024;2023-12-29T18:08:30;2.25;;;1.90;;
24635;SDS011;12772;49.794;10.024;2023-12-29T18:12:32;2.65;;;1.90;;
24635;SDS011;12772;49.794;10.024;2023-12-29T18:16:37;2.33;;;2.08;;
24635;SDS011;12772;49.794;10.024;2023-12-29T18:20:42;1.65;;;1.52;;
24635;SDS011;12772;49.794;10.024;2023-12-29T18:24:49;2.80;;;1.67;;
24635;SDS011;12772;49.794;10.024;2023-12-29T18:28:51;1.48;;;1.25;;
24635;SDS011;12772;49.794;10.024;2023-12-29T18:32:53;1.45;;;1.30;;
24635;SDS011;12772;49.794;10.024;2023-12-29T18:36:55;1.77;;;1.67;;
24635;SDS011;12772;49.794;10.024;2023-12-29T18:40:57;1.75;;;1.65;;
24635;SDS011;12772;49.794;10.024;2023-12-29T18:45:00;3.22;;;1.95;;
24635;SDS011;12772;49.794;10.024;2023-12-29T18:49:02;2.13;;;1.88;;
24635;SDS011;12772;49.794;10.024;2023-12-29T18:53:06;1.60;;;1.50;;
24635;SDS011;12772;49.794;10.024;2023-12-29T18:57:12;2.10;;;1.90;;
24635;SDS011;12772;49.794;10.024;2023-12-29T19:01:15;2.45;;;1.52;;
24635;SDS011;12772;49.794;10.024;2023-12-29T19:05:18;4.28;;;2.50;;
24635;SDS011;12772;49.794;10.024;2023-12-29T19:09:20;1.85;;;1.63;;
24635;SDS011;12772;49.794;10.024;2023-12-29T19:13:22;2.30;;;2.03;;
24635;SDS011;12772;49.794;10.024;2023-12-29T19:17:24;1.90;;;1.80;;
24635;SDS011;12772;49.794;10.024;2023-12-29T19:21:26;3.50;;;2.05;;
24635;SDS011;12772;49.794;10.024;2023-12-29T19:25:30;2.28;;;1.98;;
24635;SDS011;12772;49.794;10.024;2023-12-29T19:29:33;2.22;;;2.03;;
24635;SDS011;12772;49.794;10.024;2023-12-29T19:33:35;1.73;;;1.63;;
24635;SDS011;12772;49.794;10.024;2023-12-29T19:37:38;3.00;;;1.80;;
24635;SDS011;12772;49.794;10.024;2023-12-29T19:41:42;3.15;;;1.95;;
24635;SDS011;12772;49.794;10.024;2023-12-29T19:45:44;2.10;;;1.65;;
24635;SDS011;12772;49.794;10.024;2023-12-29T19:49:46;1.50;;;1.40;;
24635;SDS011;12772;49.794;10.024;2023-12-29T19:53:48;2.58;;;1.70;;
24635;SDS011;12772;49.794;10.024;2023-12-29T19:57:51;1.88;;;1.40;;
24635;SDS011;12772;49.794;10.024;2023-12-29T20:01:53;1.50;;;1.40;;
24635;SDS011;12772;49.794;10.024;2023-12-29T20:05:54;1.80;;;1.33;;
24635;SDS011;12772;49.794;10.024;2023-12-29T20:09:57;2.63;;;1.80;;
24635;SDS011;12772;49.794;10.024;2023-12-29T20:13:59;1.67;;;1.55;;
24635;SDS011;12772;49.794;10.024;2023-12-29T20:18:04;1.90;;;1.42;;
24635;SDS011;12772;49.794;10.024;2023-12-29T20:22:06;2.03;;;1.27;;
24635;SDS011;12772;49.794;10.024;2023-12-29T20:26:08;2.30;;;1.30;;
24635;SDS011;12772;49.794;10.024;2023-12-29T20:30:11;1.40;;;1.30;;
24635;SDS011;12772;49.794;10.024;2023-12-29T20:34:13;2.10;;;1.30;;
24635;SDS011;12772;49.794;10.024;2023-12-29T20:38:15;1.02;;;1.00;;
24635;SDS011;12772;49.794;10.024;2023-12-29T20:42:17;1.38;;;1.38;;
24635;SDS011;12772;49.794;10.024;2023-12-29T20:46:19;1.33;;;1.23;;
24635;SDS011;12772;49.794;10.024;2023-12-29T20:50:23;1.92;;;1.40;;
24635;SDS011;12772;49.794;10.024;2023-12-29T20:54:25;5.78;;;3.92;;
24635;SDS011;12772;49.794;10.024;2023-12-29T20:58:27;3.00;;;1.50;;
24635;SDS011;12772;49.794;10.024;2023-12-29T21:02:29;1.52;;;1.42;;
24635;SDS011;12772;49.794;10.024;2023-12-29T21:06:31;2.17;;;1.13;;
24635;SDS011;12772;49.794;10.024;2023-12-29T21:10:34;1.00;;;1.00;;
24635;SDS011;12772;49.794;10.024;2023-12-29T21:14:36;1.20;;;1.10;;
24635;SDS011;12772;49.794;10.024;2023-12-29T21:18:38;1.58;;;1.48;;
24635;SDS011;12772;49.794;10.024;2023-12-29T21:22:40;2.00;;;1.70;;
24635;SDS011;12772;49.794;10.024;2023-12-29T21:26:43;1.40;;;1.30;;
24635;SDS011;12772;49.794;10.024;2023-12-29T21:30:46;5.13;;;1.30;;
24635;SDS011;12772;49.794;10.024;2023-12-29T21:34:49;1.40;;;1.30;;
24635;SDS011;12772;49.794;10.024;2023-12-29T21:38:52;1.38;;;1.23;;
24635;SDS011;12772;49.794;10.024;2023-12-29T21:42:54;1.48;;;1.30;;
24635;SDS011;12772;49.794;10.024;2023-12-29T21:46:57;1.50;;;1.40;;
24635;SDS011;12772;49.794;10.024;2023-12-29T21:51:01;1.75;;;1.30;;
24635;SDS011;12772;49.794;10.024;2023-12-29T21:55:07;1.92;;;1.50;;
24635;SDS011;12772;49.794;10.024;2023-12-29T21:59:09;1.45;;;1.38;;
24635;SDS011;12772;49.794;10.024;2023-12-29T22:03:11;1.30;;;1.20;;
24635;SDS011;12772;49.794;10.024;2023-12-29T22:07:13;2.45;;;1.55;;
24635;SDS011;12772;49.794;10.024;2023-12-29T22:11:16;2.80;;;1.45;;
24635;SDS011;12772;49.794;10.024;2023-12-29T22:15:18;1.88;;;1.30;;
24635;SDS011;12772;49.794;10.024;2023-12-29T22:19:20;1.35;;;1.25;;
24635;SDS011;12772;49.794;10.024;2023-12-29T22:23:22;2.35;;;1.73;;
24635;SDS011;12772;49.794;10.024;2023-12-29T22:27:24;1.08;;;1.05;;
24635;SDS011;12772;49.794;10.024;2023-12-29T22:31:26;4.32;;;1.50;;
24635;SDS011;12772;49.794;10.024;2023-12-29T22:35:28;1.73;;;1.35;;
24635;SDS011;12772;49.794;10.024;2023-12-29T22:39:30;1.58;;;1.33;;
24635;SDS011;12772;49.794;10.024;2023-12-29T22:43:32;2.80;;;1.70;;
24635;SDS011;12772;49.794;10.024;2023-12-29T22:47:35;2.25;;;1.50;;
24635;SDS011;12772;49.794;10.024;2023-12-29T22:51:37;1.52;;;1.42;;
24635;SDS011;12772;49.794;10.024;2023-12-29T22:55:39;2.83;;;1.80;;
24635;SDS011;12772;49.794;10.024;2023-12-29T22:59:41;3.60;;;3.10;;
24635;SDS011;12772;49.794;10.024;2023-12-29T23:03:43;6.88;;;2.05;;
24635;SDS011;12772;49.794;10.024;2023-12-29T23:07:47;2.03;;;1.42;;
24635;SDS011;12772;49.794;10.024;2023-12-29T23:11:49;1.38;;;1.30;;
24635;SDS011;12772;49.794;10.024;2023-12-29T23:15:52;1.85;;;1.35;;
24635;SDS011;12772;49.794;10.024;2023-12-29T23:19:54;1.70;;;1.38;;
24635;SDS011;12772;49.794;10.024;2023-12-29T23:23:56;3.20;;;1.67;;
24635;SDS011;12772;49.794;10.024;2023-12-29T23:27:58;2.38;;;1.38;;
24635;SDS011;12772;49.794;10.024;2023-12-29T23:32:00;1.63;;;1.38;;
24635;SDS011;12772;49.794;10.024;2023-12-29T23:36:02;2.38;;;1.60;;
24635;SDS011;12772;49.794;10.024;2023-12-29T23:40:04;1.83;;;1.67;;
24635;SDS011;12772;49.794;10.024;2023-12-29T23:44:06;1.40;;;1.30;;
24635;SDS011;12772;49.794;10.024;2023-12-29T23:48:08;1.00;;;1.00;;
24635;SDS011;12772;49.794;10.024;2023-12-29T23:52:10;2.47;;;1.00;;
24635;SDS011;12772;49.794;10.024;2023-12-29T23:56:12;2.45;;;1.40;;
